sensor_id;sensor_type;location;lat;lon;timestamp;temperature;humidity
4399;DHT22;2213;49.720;7.296;2023-04-19T00:01:00;10.30;99.90
4399;DHT22;2213;49.720;7.296;2023-04-19T00:03:32;10.30;99.90
4399;DHT22;2213;49.720;7.296;2023-04-19T00:06:03;10.30;99.90
4399;DHT22;2213;49.720;7.296;2023-04-19T00:08:35;10.20;99.90
4399;DHT22;2213;49.720;7.296;2023-04-19T00:11:05;10.20;99.90
4399;DHT22;2213;49.720;7.296;2023-04-19T00:13:35;10.10;99.90
4399;DHT22;2213;49.720;7.296;2023-04-19T00:16:07;10.10;99.90
4399;DHT22;2213;49.720;7.296;2023-04-19T00:18:38;10.10;99.90
4399;DHT22;2213;49.720;7.296;2023-04-19T00:21:09;10.10;99.90
4399;DHT22;2213;49.720;7.296;2023-04-19T00:23:38;10.10;99.90
4399;DHT22;2213;49.720;7.296;2023-04-19T00:26:08;10.20;99.90
4399;DHT22;2213;49.720;7.296;2023-04-19T00:28:38;10.30;99.90
4399;DHT22;2213;49.720;7.296;2023-04-19T00:31:08;10.20;99.90
4399;DHT22;2213;49.720;7.296;2023-04-19T00:33:40;10.20;99.90
4399;DHT22;2213;49.720;7.296;2023-04-19T00:36:10;10.10;99.90
4399;DHT22;2213;49.720;7.296;2023-04-19T00:38:40;10.20;99.90
4399;DHT22;2213;49.720;7.296;2023-04-19T00:41:09;10.20;99.90
4399;DHT22;2213;49.720;7.296;2023-04-19T00:43:39;10.10;99.90
4399;DHT22;2213;49.720;7.296;2023-04-19T00:46:09;10.10;99.90
4399;DHT22;2213;49.720;7.296;2023-04-19T00:48:41;10.20;99.90
4399;DHT22;2213;49.720;7.296;2023-04-19T00:51:10;10.00;99.90
4399;DHT22;2213;49.720;7.296;2023-04-19T00:53:41;10.00;99.90
4399;DHT22;2213;49.720;7.296;2023-04-19T00:56:13;10.00;99.90
4399;DHT22;2213;49.720;7.296;2023-04-19T00:58:44;10.00;99.90
4399;DHT22;2213;49.720;7.296;2023-04-19T01:01:14;10.10;99.90
4399;DHT22;2213;49.720;7.296;2023-04-19T01:03:46;10.10;99.90
4399;DHT22;2213;49.720;7.296;2023-04-19T01:06:16;10.10;99.90
4399;DHT22;2213;49.720;7.296;2023-04-19T01:08:48;10.10;99.90
4399;DHT22;2213;49.720;7.296;2023-04-19T01:11:17;10.10;99.90
4399;DHT22;2213;49.720;7.296;2023-04-19T01:13:47;10.10;99.90
4399;DHT22;2213;49.720;7.296;2023-04-19T01:16:17;10.10;99.90
4399;DHT22;2213;49.720;7.296;2023-04-19T01:18:49;10.00;99.90
4399;DHT22;2213;49.720;7.296;2023-04-19T01:21:19;10.00;99.90
4399;DHT22;2213;49.720;7.296;2023-04-19T01:23:51;9.90;99.90
4399;DHT22;2213;49.720;7.296;2023-04-19T01:26:22;10.00;99.90
4399;DHT22;2213;49.720;7.296;2023-04-19T01:28:52;10.00;99.90
4399;DHT22;2213;49.720;7.296;2023-04-19T01:31:22;10.10;99.90
4399;DHT22;2213;49.720;7.296;2023-04-19T01:33:50;10.00;99.90
4399;DHT22;2213;49.720;7.296;2023-04-19T01:36:20;10.10;99.90
4399;DHT22;2213;49.720;7.296;2023-04-19T01:38:51;10.00;99.90
4399;DHT22;2213;49.720;7.296;2023-04-19T01:41:21;10.10;99.90
4399;DHT22;2213;49.720;7.296;2023-04-19T01:43:53;10.00;99.90
4399;DHT22;2213;49.720;7.296;2023-04-19T01:46:23;10.00;99.90
4399;DHT22;2213;49.720;7.296;2023-04-19T01:48:53;10.00;99.90
4399;DHT22;2213;49.720;7.296;2023-04-19T01:51:23;10.00;99.90
4399;DHT22;2213;49.720;7.296;2023-04-19T01:53:54;10.00;99.90
4399;DHT22;2213;49.720;7.296;2023-04-19T01:56:25;10.10;99.90
4399;DHT22;2213;49.720;7.296;2023-04-19T01:58:55;10.00;99.90
4399;DHT22;2213;49.720;7.296;2023-04-19T02:01:25;10.10;99.90
4399;DHT22;2213;49.720;7.296;2023-04-19T02:03:56;10.00;99.90
4399;DHT22;2213;49.720;7.296;2023-04-19T02:06:27;10.00;99.90
4399;DHT22;2213;49.720;7.296;2023-04-19T02:08:57;9.90;99.90
4399;DHT22;2213;49.720;7.296;2023-04-19T02:11:27;9.90;99.90
4399;DHT22;2213;49.720;7.296;2023-04-19T02:13:57;9.90;99.90
4399;DHT22;2213;49.720;7.296;2023-04-19T02:16:28;10.00;99.90
4399;DHT22;2213;49.720;7.296;2023-04-19T02:19:02;9.90;99.90
4399;DHT22;2213;49.720;7.296;2023-04-19T02:21:32;9.90;99.90
4399;DHT22;2213;49.720;7.296;2023-04-19T02:24:03;9.90;99.90
4399;DHT22;2213;49.720;7.296;2023-04-19T02:26:33;9.90;99.90
4399;DHT22;2213;49.720;7.296;2023-04-19T02:29:04;10.00;99.90
4399;DHT22;2213;49.720;7.296;2023-04-19T02:31:35;9.90;99.90
4399;DHT22;2213;49.720;7.296;2023-04-19T02:34:05;9.90;99.90
4399;DHT22;2213;49.720;7.296;2023-04-19T02:36:36;9.90;99.90
4399;DHT22;2213;49.720;7.296;2023-04-19T02:39:07;10.00;99.90
4399;DHT22;2213;49.720;7.296;2023-04-19T02:41:38;9.90;99.90
4399;DHT22;2213;49.720;7.296;2023-04-19T02:44:07;9.90;99.90
4399;DHT22;2213;49.720;7.296;2023-04-19T02:46:38;9.90;99.90
4399;DHT22;2213;49.720;7.296;2023-04-19T02:49:07;9.90;99.90
4399;DHT22;2213;49.720;7.296;2023-04-19T02:51:38;9.90;99.90
4399;DHT22;2213;49.720;7.296;2023-04-19T02:54:10;9.90;99.90
4399;DHT22;2213;49.720;7.296;2023-04-19T02:56:41;9.90;99.90
4399;DHT22;2213;49.720;7.296;2023-04-19T02:59:11;10.00;99.90
4399;DHT22;2213;49.720;7.296;2023-04-19T03:01:40;9.80;99.90
4399;DHT22;2213;49.720;7.296;2023-04-19T03:04:09;9.90;99.90
4399;DHT22;2213;49.720;7.296;2023-04-19T03:06:41;9.90;99.90
4399;DHT22;2213;49.720;7.296;2023-04-19T03:09:13;9.90;99.90
4399;DHT22;2213;49.720;7.296;2023-04-19T03:11:43;9.80;99.90
4399;DHT22;2213;49.720;7.296;2023-04-19T03:14:13;9.80;99.90
4399;DHT22;2213;49.720;7.296;2023-04-19T03:16:44;9.80;99.90
4399;DHT22;2213;49.720;7.296;2023-04-19T03:19:14;9.90;99.90
4399;DHT22;2213;49.720;7.296;2023-04-19T03:21:44;9.90;99.90
4399;DHT22;2213;49.720;7.296;2023-04-19T03:24:17;9.90;99.90
4399;DHT22;2213;49.720;7.296;2023-04-19T03:26:48;9.80;99.90
4399;DHT22;2213;49.720;7.296;2023-04-19T03:29:19;9.80;99.90
4399;DHT22;2213;49.720;7.296;2023-04-19T03:31:50;9.70;99.90
4399;DHT22;2213;49.720;7.296;2023-04-19T03:34:20;9.70;99.90
4399;DHT22;2213;49.720;7.296;2023-04-19T03:36:50;9.80;99.90
4399;DHT22;2213;49.720;7.296;2023-04-19T03:39:21;9.70;99.90
4399;DHT22;2213;49.720;7.296;2023-04-19T03:41:51;9.70;99.90
4399;DHT22;2213;49.720;7.296;2023-04-19T03:44:21;9.80;99.90
4399;DHT22;2213;49.720;7.296;2023-04-19T03:46:51;9.70;99.90
4399;DHT22;2213;49.720;7.296;2023-04-19T03:49:22;9.80;99.90
4399;DHT22;2213;49.720;7.296;2023-04-19T03:51:53;9.70;99.90
4399;DHT22;2213;49.720;7.296;2023-04-19T03:54:25;9.70;99.90
4399;DHT22;2213;49.720;7.296;2023-04-19T03:56:55;9.80;99.90
4399;DHT22;2213;49.720;7.296;2023-04-19T03:59:26;9.90;99.90
4399;DHT22;2213;49.720;7.296;2023-04-19T04:01:57;9.90;99.90
4399;DHT22;2213;49.720;7.296;2023-04-19T04:04:28;9.80;99.90
4399;DHT22;2213;49.720;7.296;2023-04-19T04:06:58;9.80;99.90
4399;DHT22;2213;49.720;7.296;2023-04-19T04:09:30;9.90;99.90
4399;DHT22;2213;49.720;7.296;2023-04-19T04:12:00;9.80;99.90
4399;DHT22;2213;49.720;7.296;2023-04-19T04:14:31;9.70;99.90
4399;DHT22;2213;49.720;7.296;2023-04-19T04:17:00;9.70;99.90
4399;DHT22;2213;49.720;7.296;2023-04-19T04:19:31;9.70;99.90
4399;DHT22;2213;49.720;7.296;2023-04-19T04:22:00;9.60;99.90
4399;DHT22;2213;49.720;7.296;2023-04-19T04:24:38;9.60;99.90
4399;DHT22;2213;49.720;7.296;2023-04-19T04:27:09;9.70;99.90
4399;DHT22;2213;49.720;7.296;2023-04-19T04:29:39;9.70;99.90
4399;DHT22;2213;49.720;7.296;2023-04-19T04:32:10;9.70;99.90
4399;DHT22;2213;49.720;7.296;2023-04-19T04:34:41;9.70;99.90
4399;DHT22;2213;49.720;7.296;2023-04-19T04:37:11;9.80;99.90
4399;DHT22;2213;49.720;7.296;2023-04-19T04:39:42;9.80;99.90
4399;DHT22;2213;49.720;7.296;2023-04-19T04:42:12;9.80;99.90
4399;DHT22;2213;49.720;7.296;2023-04-19T04:44:42;9.80;99.90
4399;DHT22;2213;49.720;7.296;2023-04-19T04:47:14;9.70;99.90
4399;DHT22;2213;49.720;7.296;2023-04-19T04:49:43;9.70;99.90
4399;DHT22;2213;49.720;7.296;2023-04-19T04:52:13;9.70;99.90
4399;DHT22;2213;49.720;7.296;2023-04-19T04:54:44;9.60;99.90
4399;DHT22;2213;49.720;7.296;2023-04-19T04:57:14;9.70;99.90
4399;DHT22;2213;49.720;7.296;2023-04-19T04:59:44;9.70;99.90
4399;DHT22;2213;49.720;7.296;2023-04-19T05:02:14;9.80;99.90
4399;DHT22;2213;49.720;7.296;2023-04-19T05:04:45;9.80;99.90
4399;DHT22;2213;49.720;7.296;2023-04-19T05:07:15;9.90;99.90
4399;DHT22;2213;49.720;7.296;2023-04-19T05:09:45;9.80;99.90
4399;DHT22;2213;49.720;7.296;2023-04-19T05:12:14;9.70;99.90
4399;DHT22;2213;49.720;7.296;2023-04-19T05:14:45;9.70;99.90
4399;DHT22;2213;49.720;7.296;2023-04-19T05:17:15;9.70;99.90
4399;DHT22;2213;49.720;7.296;2023-04-19T05:19:45;9.70;99.90
4399;DHT22;2213;49.720;7.296;2023-04-19T05:22:15;9.70;99.90
4399;DHT22;2213;49.720;7.296;2023-04-19T05:24:46;9.80;99.90
4399;DHT22;2213;49.720;7.296;2023-04-19T05:27:16;9.80;99.90
4399;DHT22;2213;49.720;7.296;2023-04-19T05:29:44;9.80;99.90
4399;DHT22;2213;49.720;7.296;2023-04-19T05:32:13;9.70;99.90
4399;DHT22;2213;49.720;7.296;2023-04-19T05:34:44;9.80;99.90
4399;DHT22;2213;49.720;7.296;2023-04-19T05:37:14;9.90;99.90
4399;DHT22;2213;49.720;7.296;2023-04-19T05:39:43;9.90;99.90
4399;DHT22;2213;49.720;7.296;2023-04-19T05:42:14;10.00;99.90
4399;DHT22;2213;49.720;7.296;2023-04-19T05:44:44;9.90;99.90
4399;DHT22;2213;49.720;7.296;2023-04-19T05:47:13;9.90;99.90
4399;DHT22;2213;49.720;7.296;2023-04-19T05:49:44;9.80;99.90
4399;DHT22;2213;49.720;7.296;2023-04-19T05:52:13;9.80;99.90
4399;DHT22;2213;49.720;7.296;2023-04-19T05:54:42;9.80;99.90
4399;DHT22;2213;49.720;7.296;2023-04-19T05:57:14;9.80;99.90
4399;DHT22;2213;49.720;7.296;2023-04-19T05:59:44;9.90;99.90
4399;DHT22;2213;49.720;7.296;2023-04-19T06:02:14;9.90;99.90
4399;DHT22;2213;49.720;7.296;2023-04-19T06:04:44;9.80;99.90
4399;DHT22;2213;49.720;7.296;2023-04-19T06:07:15;9.80;99.90
4399;DHT22;2213;49.720;7.296;2023-04-19T06:09:57;9.80;99.90
4399;DHT22;2213;49.720;7.296;2023-04-19T06:12:27;9.90;99.90
4399;DHT22;2213;49.720;7.296;2023-04-19T06:14:57;9.90;99.90
4399;DHT22;2213;49.720;7.296;2023-04-19T06:17:27;9.90;99.90
4399;DHT22;2213;49.720;7.296;2023-04-19T06:19:57;9.90;99.90
4399;DHT22;2213;49.720;7.296;2023-04-19T06:22:26;9.90;99.90
4399;DHT22;2213;49.720;7.296;2023-04-19T06:24:55;9.90;99.90
4399;DHT22;2213;49.720;7.296;2023-04-19T06:27:27;9.90;99.90
4399;DHT22;2213;49.720;7.296;2023-04-19T06:29:56;9.90;99.90
4399;DHT22;2213;49.720;7.296;2023-04-19T06:32:28;9.90;99.90
4399;DHT22;2213;49.720;7.296;2023-04-19T06:34:59;9.90;99.90
4399;DHT22;2213;49.720;7.296;2023-04-19T06:37:29;10.00;99.90
4399;DHT22;2213;49.720;7.296;2023-04-19T06:39:59;10.00;99.90
4399;DHT22;2213;49.720;7.296;2023-04-19T06:42:31;10.00;99.90
4399;DHT22;2213;49.720;7.296;2023-04-19T06:45:00;10.10;99.90
4399;DHT22;2213;49.720;7.296;2023-04-19T06:47:30;10.00;99.90
4399;DHT22;2213;49.720;7.296;2023-04-19T06:50:02;10.10;99.90
4399;DHT22;2213;49.720;7.296;2023-04-19T06:52:32;10.20;99.90
4399;DHT22;2213;49.720;7.296;2023-04-19T06:55:01;10.10;99.90
4399;DHT22;2213;49.720;7.296;2023-04-19T06:57:31;10.10;99.90
4399;DHT22;2213;49.720;7.296;2023-04-19T07:00:01;10.20;99.90
4399;DHT22;2213;49.720;7.296;2023-04-19T07:02:32;10.10;99.90
4399;DHT22;2213;49.720;7.296;2023-04-19T07:05:01;10.10;99.90
4399;DHT22;2213;49.720;7.296;2023-04-19T07:07:30;10.20;99.90
4399;DHT22;2213;49.720;7.296;2023-04-19T07:10:01;10.30;99.90
4399;DHT22;2213;49.720;7.296;2023-04-19T07:12:34;10.40;99.90
4399;DHT22;2213;49.720;7.296;2023-04-19T07:15:03;10.30;99.90
4399;DHT22;2213;49.720;7.296;2023-04-19T07:17:34;10.30;99.90
4399;DHT22;2213;49.720;7.296;2023-04-19T07:20:05;10.40;99.90
4399;DHT22;2213;49.720;7.296;2023-04-19T07:22:38;10.40;99.90
4399;DHT22;2213;49.720;7.296;2023-04-19T07:25:09;10.40;99.90
4399;DHT22;2213;49.720;7.296;2023-04-19T07:27:41;10.50;99.90
4399;DHT22;2213;49.720;7.296;2023-04-19T07:30:10;10.50;99.90
4399;DHT22;2213;49.720;7.296;2023-04-19T07:32:41;10.50;99.90
4399;DHT22;2213;49.720;7.296;2023-04-19T07:35:11;10.50;99.90
4399;DHT22;2213;49.720;7.296;2023-04-19T07:37:41;10.50;99.90
4399;DHT22;2213;49.720;7.296;2023-04-19T07:40:12;10.50;99.90
4399;DHT22;2213;49.720;7.296;2023-04-19T07:42:43;10.60;99.90
4399;DHT22;2213;49.720;7.296;2023-04-19T07:45:13;10.60;99.90
4399;DHT22;2213;49.720;7.296;2023-04-19T07:47:44;10.70;99.90
4399;DHT22;2213;49.720;7.296;2023-04-19T07:50:13;10.70;99.90
4399;DHT22;2213;49.720;7.296;2023-04-19T07:52:43;10.70;99.90
4399;DHT22;2213;49.720;7.296;2023-04-19T07:55:13;10.70;99.90
4399;DHT22;2213;49.720;7.296;2023-04-19T07:57:43;10.80;99.90
4399;DHT22;2213;49.720;7.296;2023-04-19T08:00:16;10.70;99.90
4399;DHT22;2213;49.720;7.296;2023-04-19T08:02:48;10.80;99.90
4399;DHT22;2213;49.720;7.296;2023-04-19T08:05:19;10.90;99.90
4399;DHT22;2213;49.720;7.296;2023-04-19T08:07:51;10.90;99.90
4399;DHT22;2213;49.720;7.296;2023-04-19T08:10:20;11.00;99.90
4399;DHT22;2213;49.720;7.296;2023-04-19T08:12:51;11.10;99.90
4399;DHT22;2213;49.720;7.296;2023-04-19T08:15:33;11.20;99.90
4399;DHT22;2213;49.720;7.296;2023-04-19T08:18:05;11.30;99.90
4399;DHT22;2213;49.720;7.296;2023-04-19T08:20:36;11.20;99.90
4399;DHT22;2213;49.720;7.296;2023-04-19T08:23:08;11.20;99.90
4399;DHT22;2213;49.720;7.296;2023-04-19T08:25:50;11.20;99.90
4399;DHT22;2213;49.720;7.296;2023-04-19T08:28:22;11.40;99.90
4399;DHT22;2213;49.720;7.296;2023-04-19T08:30:54;11.40;99.90
4399;DHT22;2213;49.720;7.296;2023-04-19T08:33:23;11.30;99.90
4399;DHT22;2213;49.720;7.296;2023-04-19T08:35:53;11.50;99.90
4399;DHT22;2213;49.720;7.296;2023-04-19T08:38:24;11.50;99.90
4399;DHT22;2213;49.720;7.296;2023-04-19T08:40:53;11.60;99.90
4399;DHT22;2213;49.720;7.296;2023-04-19T08:43:24;11.60;99.90
4399;DHT22;2213;49.720;7.296;2023-04-19T08:46:00;11.60;99.90
4399;DHT22;2213;49.720;7.296;2023-04-19T08:48:33;11.70;99.90
4399;DHT22;2213;49.720;7.296;2023-04-19T08:51:04;11.60;99.90
4399;DHT22;2213;49.720;7.296;2023-04-19T08:53:34;11.70;99.90
4399;DHT22;2213;49.720;7.296;2023-04-19T08:56:06;11.60;99.90
4399;DHT22;2213;49.720;7.296;2023-04-19T08:58:58;11.70;99.90
4399;DHT22;2213;49.720;7.296;2023-04-19T09:01:45;11.90;99.90
4399;DHT22;2213;49.720;7.296;2023-04-19T09:04:15;11.90;99.90
4399;DHT22;2213;49.720;7.296;2023-04-19T09:07:02;11.90;99.90
4399;DHT22;2213;49.720;7.296;2023-04-19T09:09:34;11.90;99.90
4399;DHT22;2213;49.720;7.296;2023-04-19T09:12:24;12.00;99.90
4399;DHT22;2213;49.720;7.296;2023-04-19T09:14:56;12.00;99.90
4399;DHT22;2213;49.720;7.296;2023-04-19T09:17:28;12.00;99.90
4399;DHT22;2213;49.720;7.296;2023-04-19T09:19:58;12.10;99.90
4399;DHT22;2213;49.720;7.296;2023-04-19T09:22:28;12.10;99.90
4399;DHT22;2213;49.720;7.296;2023-04-19T09:24:57;12.00;99.90
4399;DHT22;2213;49.720;7.296;2023-04-19T09:27:47;12.10;99.90
4399;DHT22;2213;49.720;7.296;2023-04-19T09:30:21;12.20;99.90
4399;DHT22;2213;49.720;7.296;2023-04-19T09:32:59;12.10;99.90
4399;DHT22;2213;49.720;7.296;2023-04-19T09:35:39;12.10;99.90
4399;DHT22;2213;49.720;7.296;2023-04-19T09:38:09;12.20;99.90
4399;DHT22;2213;49.720;7.296;2023-04-19T09:40:41;12.20;99.90
4399;DHT22;2213;49.720;7.296;2023-04-19T09:43:11;12.30;99.90
4399;DHT22;2213;49.720;7.296;2023-04-19T09:46:02;12.30;99.90
4399;DHT22;2213;49.720;7.296;2023-04-19T09:48:32;12.30;99.90
4399;DHT22;2213;49.720;7.296;2023-04-19T09:51:04;12.40;99.90
4399;DHT22;2213;49.720;7.296;2023-04-19T09:53:39;12.50;99.90
4399;DHT22;2213;49.720;7.296;2023-04-19T09:56:11;12.40;99.90
4399;DHT22;2213;49.720;7.296;2023-04-19T09:58:42;12.50;99.90
4399;DHT22;2213;49.720;7.296;2023-04-19T10:01:22;12.60;99.90
4399;DHT22;2213;49.720;7.296;2023-04-19T10:03:54;12.60;99.90
4399;DHT22;2213;49.720;7.296;2023-04-19T10:06:41;12.70;99.90
4399;DHT22;2213;49.720;7.296;2023-04-19T10:09:34;12.80;99.90
4399;DHT22;2213;49.720;7.296;2023-04-19T10:12:19;12.90;99.90
4399;DHT22;2213;49.720;7.296;2023-04-19T10:14:55;13.00;99.90
4399;DHT22;2213;49.720;7.296;2023-04-19T10:17:26;13.00;99.90
4399;DHT22;2213;49.720;7.296;2023-04-19T10:20:00;13.00;99.90
4399;DHT22;2213;49.720;7.296;2023-04-19T10:22:35;13.00;99.90
4399;DHT22;2213;49.720;7.296;2023-04-19T10:25:10;13.00;99.90
4399;DHT22;2213;49.720;7.296;2023-04-19T10:27:42;12.80;99.90
4399;DHT22;2213;49.720;7.296;2023-04-19T10:30:17;12.70;99.90
4399;DHT22;2213;49.720;7.296;2023-04-19T10:32:53;12.70;99.90
4399;DHT22;2213;49.720;7.296;2023-04-19T10:35:25;12.60;99.90
4399;DHT22;2213;49.720;7.296;2023-04-19T10:38:06;12.50;99.90
4399;DHT22;2213;49.720;7.296;2023-04-19T10:40:57;12.40;99.90
4399;DHT22;2213;49.720;7.296;2023-04-19T10:43:29;12.40;99.90
4399;DHT22;2213;49.720;7.296;2023-04-19T10:46:05;12.40;99.90
4399;DHT22;2213;49.720;7.296;2023-04-19T10:48:40;12.40;99.90
4399;DHT22;2213;49.720;7.296;2023-04-19T10:51:22;12.30;99.90
4399;DHT22;2213;49.720;7.296;2023-04-19T10:53:57;12.20;99.90
4399;DHT22;2213;49.720;7.296;2023-04-19T10:56:58;12.20;99.90
4399;DHT22;2213;49.720;7.296;2023-04-19T10:59:29;12.10;99.90
4399;DHT22;2213;49.720;7.296;2023-04-19T11:01:59;12.10;99.90
4399;DHT22;2213;49.720;7.296;2023-04-19T11:04:59;12.10;99.90
4399;DHT22;2213;49.720;7.296;2023-04-19T11:07:35;12.10;99.90
4399;DHT22;2213;49.720;7.296;2023-04-19T11:10:08;12.20;99.90
4399;DHT22;2213;49.720;7.296;2023-04-19T11:12:43;12.20;99.90
4399;DHT22;2213;49.720;7.296;2023-04-19T11:15:14;12.30;99.90
4399;DHT22;2213;49.720;7.296;2023-04-19T11:17:44;12.30;99.90
4399;DHT22;2213;49.720;7.296;2023-04-19T11:20:37;12.40;99.90
4399;DHT22;2213;49.720;7.296;2023-04-19T11:23:15;12.40;99.90
4399;DHT22;2213;49.720;7.296;2023-04-19T11:25:44;12.40;99.90
4399;DHT22;2213;49.720;7.296;2023-04-19T11:28:14;12.20;99.90
4399;DHT22;2213;49.720;7.296;2023-04-19T11:30:45;12.30;99.90
4399;DHT22;2213;49.720;7.296;2023-04-19T11:33:14;12.20;99.90
4399;DHT22;2213;49.720;7.296;2023-04-19T11:35:52;12.30;99.90
4399;DHT22;2213;49.720;7.296;2023-04-19T11:38:21;12.30;99.90
4399;DHT22;2213;49.720;7.296;2023-04-19T11:40:57;12.30;99.90
4399;DHT22;2213;49.720;7.296;2023-04-19T11:43:31;12.30;99.90
4399;DHT22;2213;49.720;7.296;2023-04-19T11:46:04;12.50;99.90
4399;DHT22;2213;49.720;7.296;2023-04-19T11:48:34;12.50;99.90
4399;DHT22;2213;49.720;7.296;2023-04-19T11:51:05;12.60;99.90
4399;DHT22;2213;49.720;7.296;2023-04-19T11:53:36;12.80;99.90
4399;DHT22;2213;49.720;7.296;2023-04-19T11:56:08;12.90;99.90
4399;DHT22;2213;49.720;7.296;2023-04-19T11:58:40;13.00;99.90
4399;DHT22;2213;49.720;7.296;2023-04-19T12:01:12;13.10;99.90
4399;DHT22;2213;49.720;7.296;2023-04-19T12:03:44;13.00;99.90
4399;DHT22;2213;49.720;7.296;2023-04-19T12:06:18;13.00;99.90
4399;DHT22;2213;49.720;7.296;2023-04-19T12:08:50;13.10;99.90
4399;DHT22;2213;49.720;7.296;2023-04-19T12:11:22;13.00;99.90
4399;DHT22;2213;49.720;7.296;2023-04-19T12:14:07;13.10;99.90
4399;DHT22;2213;49.720;7.296;2023-04-19T12:16:36;13.10;99.90
4399;DHT22;2213;49.720;7.296;2023-04-19T12:19:10;13.00;99.90
4399;DHT22;2213;49.720;7.296;2023-04-19T12:21:46;13.00;99.90
4399;DHT22;2213;49.720;7.296;2023-04-19T12:24:15;13.10;99.90
4399;DHT22;2213;49.720;7.296;2023-04-19T12:26:52;13.00;99.90
4399;DHT22;2213;49.720;7.296;2023-04-19T12:29:23;13.00;99.90
4399;DHT22;2213;49.720;7.296;2023-04-19T12:31:53;13.30;99.90
4399;DHT22;2213;49.720;7.296;2023-04-19T12:34:25;13.30;99.90
4399;DHT22;2213;49.720;7.296;2023-04-19T12:36:56;13.30;99.90
4399;DHT22;2213;49.720;7.296;2023-04-19T12:39:24;13.30;99.90
4399;DHT22;2213;49.720;7.296;2023-04-19T12:41:55;13.20;99.40
4399;DHT22;2213;49.720;7.296;2023-04-19T12:44:25;13.30;99.80
4399;DHT22;2213;49.720;7.296;2023-04-19T12:46:55;13.30;99.90
4399;DHT22;2213;49.720;7.296;2023-04-19T12:49:25;13.50;99.90
4399;DHT22;2213;49.720;7.296;2023-04-19T12:51:56;13.60;99.40
4399;DHT22;2213;49.720;7.296;2023-04-19T12:54:26;13.70;99.40
4399;DHT22;2213;49.720;7.296;2023-04-19T12:56:55;13.80;99.30
4399;DHT22;2213;49.720;7.296;2023-04-19T12:59:27;13.80;98.80
4399;DHT22;2213;49.720;7.296;2023-04-19T13:01:57;13.90;98.60
4399;DHT22;2213;49.720;7.296;2023-04-19T13:04:26;14.10;98.40
4399;DHT22;2213;49.720;7.296;2023-04-19T13:06:58;14.10;97.70
4399;DHT22;2213;49.720;7.296;2023-04-19T13:09:27;14.00;96.10
4399;DHT22;2213;49.720;7.296;2023-04-19T13:11:56;13.90;96.50
4399;DHT22;2213;49.720;7.296;2023-04-19T13:14:26;13.90;96.90
4399;DHT22;2213;49.720;7.296;2023-04-19T13:16:56;14.00;96.70
4399;DHT22;2213;49.720;7.296;2023-04-19T13:19:25;14.10;97.20
4399;DHT22;2213;49.720;7.296;2023-04-19T13:21:54;14.00;95.80
4399;DHT22;2213;49.720;7.296;2023-04-19T13:24:26;14.10;96.30
4399;DHT22;2213;49.720;7.296;2023-04-19T13:26:56;14.00;94.70
4399;DHT22;2213;49.720;7.296;2023-04-19T13:29:25;14.30;95.20
4399;DHT22;2213;49.720;7.296;2023-04-19T13:31:54;14.30;94.20
4399;DHT22;2213;49.720;7.296;2023-04-19T13:34:24;14.30;93.80
4399;DHT22;2213;49.720;7.296;2023-04-19T13:36:53;14.30;94.10
4399;DHT22;2213;49.720;7.296;2023-04-19T13:39:25;14.50;93.80
4399;DHT22;2213;49.720;7.296;2023-04-19T13:41:55;14.60;93.30
4399;DHT22;2213;49.720;7.296;2023-04-19T13:44:26;14.70;93.80
4399;DHT22;2213;49.720;7.296;2023-04-19T13:46:55;14.90;94.00
4399;DHT22;2213;49.720;7.296;2023-04-19T13:49:26;15.40;93.50
4399;DHT22;2213;49.720;7.296;2023-04-19T13:51:57;15.10;92.10
4399;DHT22;2213;49.720;7.296;2023-04-19T13:54:28;15.40;93.10
4399;DHT22;2213;49.720;7.296;2023-04-19T13:56:57;15.20;92.30
4399;DHT22;2213;49.720;7.296;2023-04-19T13:59:27;15.40;91.80
4399;DHT22;2213;49.720;7.296;2023-04-19T14:01:57;15.30;92.50
4399;DHT22;2213;49.720;7.296;2023-04-19T14:04:27;15.30;92.50
4399;DHT22;2213;49.720;7.296;2023-04-19T14:06:58;15.40;92.70
4399;DHT22;2213;49.720;7.296;2023-04-19T14:09:29;15.40;92.10
4399;DHT22;2213;49.720;7.296;2023-04-19T14:12:00;15.30;92.20
4399;DHT22;2213;49.720;7.296;2023-04-19T14:14:31;15.30;92.40
4399;DHT22;2213;49.720;7.296;2023-04-19T14:16:59;15.30;92.20
4399;DHT22;2213;49.720;7.296;2023-04-19T14:19:28;15.40;92.40
4399;DHT22;2213;49.720;7.296;2023-04-19T14:21:57;15.20;91.60
4399;DHT22;2213;49.720;7.296;2023-04-19T14:24:29;15.10;91.70
4399;DHT22;2213;49.720;7.296;2023-04-19T14:26:59;15.20;91.90
4399;DHT22;2213;49.720;7.296;2023-04-19T14:29:37;15.30;91.90
4399;DHT22;2213;49.720;7.296;2023-04-19T14:32:07;15.20;92.30
4399;DHT22;2213;49.720;7.296;2023-04-19T14:34:51;15.30;92.00
4399;DHT22;2213;49.720;7.296;2023-04-19T14:37:22;15.40;92.00
4399;DHT22;2213;49.720;7.296;2023-04-19T14:39:52;15.60;91.90
4399;DHT22;2213;49.720;7.296;2023-04-19T14:42:23;15.50;90.60
4399;DHT22;2213;49.720;7.296;2023-04-19T14:44:54;15.60;91.50
4399;DHT22;2213;49.720;7.296;2023-04-19T14:47:22;15.50;91.00
4399;DHT22;2213;49.720;7.296;2023-04-19T14:49:53;15.50;90.00
4399;DHT22;2213;49.720;7.296;2023-04-19T14:52:24;15.50;89.90
4399;DHT22;2213;49.720;7.296;2023-04-19T14:54:55;15.70;91.10
4399;DHT22;2213;49.720;7.296;2023-04-19T14:57:26;15.90;90.60
4399;DHT22;2213;49.720;7.296;2023-04-19T14:59:56;15.80;90.10
4399;DHT22;2213;49.720;7.296;2023-04-19T15:02:27;15.80;89.10
4399;DHT22;2213;49.720;7.296;2023-04-19T15:04:57;15.90;87.60
4399;DHT22;2213;49.720;7.296;2023-04-19T15:07:27;15.80;86.20
4399;DHT22;2213;49.720;7.296;2023-04-19T15:09:58;15.80;86.20
4399;DHT22;2213;49.720;7.296;2023-04-19T15:12:28;15.70;85.40
4399;DHT22;2213;49.720;7.296;2023-04-19T15:14:57;15.80;84.70
4399;DHT22;2213;49.720;7.296;2023-04-19T15:17:26;15.60;82.10
4399;DHT22;2213;49.720;7.296;2023-04-19T15:19:54;15.50;82.20
4399;DHT22;2213;49.720;7.296;2023-04-19T15:22:24;15.70;83.70
4399;DHT22;2213;49.720;7.296;2023-04-19T15:24:53;15.70;81.40
4399;DHT22;2213;49.720;7.296;2023-04-19T15:27:25;16.00;80.60
4399;DHT22;2213;49.720;7.296;2023-04-19T15:29:54;16.00;79.40
4399;DHT22;2213;49.720;7.296;2023-04-19T15:32:23;15.80;76.60
4399;DHT22;2213;49.720;7.296;2023-04-19T15:34:56;15.70;74.90
4399;DHT22;2213;49.720;7.296;2023-04-19T15:37:25;15.70;75.60
4399;DHT22;2213;49.720;7.296;2023-04-19T15:39:55;15.70;77.80
4399;DHT22;2213;49.720;7.296;2023-04-19T15:42:26;15.60;77.00
4399;DHT22;2213;49.720;7.296;2023-04-19T15:44:56;15.70;76.00
4399;DHT22;2213;49.720;7.296;2023-04-19T15:47:26;15.60;76.60
4399;DHT22;2213;49.720;7.296;2023-04-19T15:49:56;15.40;75.10
4399;DHT22;2213;49.720;7.296;2023-04-19T15:52:26;15.40;76.60
4399;DHT22;2213;49.720;7.296;2023-04-19T15:54:55;15.30;75.30
4399;DHT22;2213;49.720;7.296;2023-04-19T15:57:27;15.10;73.80
4399;DHT22;2213;49.720;7.296;2023-04-19T15:59:57;15.00;74.00
4399;DHT22;2213;49.720;7.296;2023-04-19T16:02:27;15.00;74.70
4399;DHT22;2213;49.720;7.296;2023-04-19T16:04:57;14.90;73.40
4399;DHT22;2213;49.720;7.296;2023-04-19T16:07:28;14.90;75.80
4399;DHT22;2213;49.720;7.296;2023-04-19T16:09:58;14.90;76.10
4399;DHT22;2213;49.720;7.296;2023-04-19T16:12:29;14.80;74.80
4399;DHT22;2213;49.720;7.296;2023-04-19T16:14:58;14.80;74.90
4399;DHT22;2213;49.720;7.296;2023-04-19T16:17:27;14.90;76.60
4399;DHT22;2213;49.720;7.296;2023-04-19T16:19:57;14.80;73.80
4399;DHT22;2213;49.720;7.296;2023-04-19T16:22:27;14.70;73.50
4399;DHT22;2213;49.720;7.296;2023-04-19T16:24:57;14.80;72.70
4399;DHT22;2213;49.720;7.296;2023-04-19T16:27:25;14.80;74.30
4399;DHT22;2213;49.720;7.296;2023-04-19T16:29:55;14.90;72.60
4399;DHT22;2213;49.720;7.296;2023-04-19T16:32:25;14.70;70.40